Time;durP1;ratioP1;P1;durP2;ratioP2;P2;SDS_P1;SDS_P2;PMS_P1;PMS_P2;Temp;Humidity;BMP_temperature;BMP_pressure;BME280_temperature;BME280_humidity;BME280_pressure;Samples;Min_cycle;Max_cycle;Signal;HPM_P1;HPM_P2
2023/01/26 00:01:36;;;;;;;;;;;;;;;5.09;100.00;100288.81;5015535;28;20007;-83
2023/01/26 00:04:01;;;;;;;;;;;;;;;5.15;100.00;100289.63;5008709;28;19921;-90
2023/01/26 00:06:27;;;;;;;;;;;;;;;5.17;100.00;100283.47;5035611;28;19961;-89
2023/01/26 00:08:53;;;;;;;;;;;;;;;5.22;100.00;100286.03;5017365;28;19917;-89
2023/01/26 00:11:19;;;;;;;;;;;;;;;5.21;100.00;100279.91;5036104;28;19917;-90
2023/01/26 00:13:45;;;;;;;;;;;;;;;5.23;100.00;100285.13;4999310;28;19983;-88
2023/01/26 00:16:11;;;;;;;;;;;;;;;5.26;100.00;100272.84;4997887;28;20327;-89
2023/01/26 00:18:38;;;;;;;;;;;;;;;5.27;100.00;100266.69;4997659;28;20006;-84
2023/01/26 00:21:03;;;;;;;;;;;;;;;5.30;100.00;100264.88;4997281;28;19925;-86
2023/01/26 00:23:30;;;;;;;;;;;;;;;5.31;100.00;100261.38;5010489;28;19921;-85
2023/01/26 00:25:58;;;;;;;;;;;;;;;5.35;100.00;100260.47;5015114;28;19925;-85
2023/01/26 03:29:13;;;;;;;;;;;;;;;6.11;100.00;100160.22;5076174;28;19923;-82
2023/01/26 03:31:38;;;;;;;;;;;;;;;6.14;100.00;100158.41;5075964;28;20006;-82
2023/01/26 03:34:03;;;;;;;;;;;;;;;6.13;100.00;100158.44;5076067;28;19939;-83
2023/01/26 03:36:29;;;;;;;;;;;;;;;6.17;100.00;100160.09;5056719;28;19924;-84
2023/01/26 03:38:54;;;;;;;;;;;;;;;6.15;100.00;100159.28;5075838;28;19970;-82
2023/01/26 03:57:43;;;;;;;;;;;;;;;6.17;100.00;100153.09;5075837;28;19924;-83
2023/01/26 04:00:09;;;;;;;;;;;;;;;6.18;100.00;100151.31;5075404;28;19917;-86
2023/01/26 04:10:50;;;;;;;;;;;;;;;6.25;100.00;100149.44;5075613;28;20270;-82
2023/01/26 04:21:32;;;;;;;;;;;;;;;6.24;100.00;100151.22;5074122;28;19923;-83
2023/01/26 04:23:57;;;;;;;;;;;;;;;5.32;100.00;100147.50;5074872;28;19982;-82
2023/01/26 04:26:23;;;;;;;;;;;;;;;4.60;100.00;100146.78;5057033;28;19917;-81
2023/01/26 04:28:49;;;;;;;;;;;;;;;4.31;100.00;100150.63;5074928;28;19963;-82
2023/01/26 04:31:15;;;;;;;;;;;;;;;4.06;100.00;100148.25;5074737;28;20287;-82
2023/01/26 04:33:40;;;;;;;;;;;;;;;3.88;100.00;100137.94;5074919;28;19965;-84
2023/01/26 04:36:06;;;;;;;;;;;;;;;3.85;100.00;100143.25;5056768;28;19916;-84
2023/01/26 04:38:31;;;;;;;;;;;;;;;3.68;100.00;100140.75;5073573;28;19916;-83
2023/01/26 04:40:57;;;;;;;;;;;;;;;3.58;100.00;100137.34;5056679;28;19939;-83
2023/01/26 08:42:27;;;;;;;;;;;;;;;;;;;;;
2023/01/26 08:45:01;;;;;;;;;;;;;;;5.67;100.00;100203.91;5035079;28;19925;-87
2023/01/26 08:50:55;;;;;;;;;;;;;;;5.69;100.00;100202.97;4959070;28;19973;-88
2023/01/26 08:53:31;;;;;;;;;;;;;;;;;;;;;
2023/01/26 08:59:11;;;;;;;;;;;;;;;5.73;100.00;100196.78;5040352;28;20367;-88
2023/01/26 09:01:39;;;;;;;;;;;;;;;5.75;100.00;100194.13;5012252;28;19972;-86
2023/01/26 09:04:11;;;;;;;;;;;;;;;5.73;100.00;100195.94;5012594;28;19922;-89
2023/01/26 09:06:37;;;;;;;;;;;;;;;5.76;100.00;100194.13;5012438;28;19923;-85
2023/01/26 09:09:05;;;;;;;;;;;;;;;5.76;100.00;100198.47;5012680;28;20004;-90
2023/01/26 09:11:40;;;;;;;;;;;;;;;;;;;;;
2023/01/26 09:14:27;;;;;;;;;;;;;;;5.79;100.00;100194.06;5012285;28;19917;-87
2023/01/26 09:16:54;;;;;;;;;;;;;;;5.82;100.00;100203.66;5011597;28;20261;-85
2023/01/26 09:19:22;;;;;;;;;;;;;;;5.82;100.00;100204.53;5012244;28;19922;-84
2023/01/26 09:21:53;;;;;;;;;;;;;;;5.81;100.00;100209.81;4972598;28;19922;-85
2023/01/26 09:24:21;;;;;;;;;;;;;;;5.81;100.00;100209.81;4971635;28;19918;-85
2023/01/26 09:26:49;;;;;;;;;;;;;;;5.81;100.00;100212.44;4956895;28;20009;-85
2023/01/26 09:29:20;;;;;;;;;;;;;;;5.80;100.00;100210.69;4956844;28;19918;-83
2023/01/26 09:31:46;;;;;;;;;;;;;;;5.82;100.00;100214.16;4962388;28;19963;-84
2023/01/26 09:34:11;;;;;;;;;;;;;;;5.83;100.00;100210.66;5011887;28;19960;-84
2023/01/26 09:36:36;;;;;;;;;;;;;;;5.81;100.00;100208.03;5011544;28;19917;-84
2023/01/26 09:39:01;;;;;;;;;;;;;;;5.82;100.00;100211.53;5011901;28;19918;-85
2023/01/26 09:41:27;;;;;;;;;;;;;;;5.87;100.00;100216.72;5010598;28;19917;-88
2023/01/26 09:44:09;;;;;;;;;;;;;;;5.85;100.00;100213.25;5011721;28;19928;-85
2023/01/26 09:46:43;;;;;;;;;;;;;;;5.87;100.00;100209.72;5011557;28;19924;-84
2023/01/26 09:49:18;;;;;;;;;;;;;;;5.88;100.00;100207.94;5011598;28;19934;-85
2023/01/26 09:51:50;;;;;;;;;;;;;;;5.90;100.00;100211.41;5013774;28;20380;-85
2023/01/26 09:54:25;;;;;;;;;;;;;;;5.90;100.00;100208.78;5051412;28;19917;-88
2023/01/26 09:56:50;;;;;;;;;;;;;;;5.88;100.00;100211.44;5053131;28;19916;-86
2023/01/26 09:59:15;;;;;;;;;;;;;;;5.91;100.00;100207.91;5053432;28;20425;-85
2023/01/26 10:01:59;;;;;;;;;;;;;;;5.93;100.00;100203.47;5053273;28;19916;-86
2023/01/26 10:04:35;;;;;;;;;;;;;;;5.90;100.00;100201.75;5053214;28;19957;-89
2023/01/26 10:07:36;;;;;;;;;;;;;;;5.92;100.00;100201.72;5053216;28;19925;-90
2023/01/26 10:10:02;;;;;;;;;;;;;;;5.93;100.00;100196.44;5051748;28;19967;-89
2023/01/26 10:12:36;;;;;;;;;;;;;;;5.91;100.00;100194.75;5035462;28;19917;-87
2023/01/26 10:15:11;;;;;;;;;;;;;;;5.92;100.00;100199.97;5035296;28;19967;-85
2023/01/26 10:17:38;;;;;;;;;;;;;;;5.92;100.00;100193.84;5053130;28;20334;-86
2023/01/26 10:20:22;;;;;;;;;;;;;;;5.93;100.00;100196.44;5052940;28;19928;-85
2023/01/26 10:22:49;;;;;;;;;;;;;;;5.95;100.00;100204.31;5053092;28;19916;-86
2023/01/26 10:25:14;;;;;;;;;;;;;;;5.96;100.00;100195.53;5051632;28;20295;-86
2023/01/26 10:27:44;;;;;;;;;;;;;;;5.97;100.00;100192.06;5053040;28;19921;-85
2023/01/26 10:30:20;;;;;;;;;;;;;;;5.98;100.00;100194.66;5052912;28;19943;-86
2023/01/26 10:32:49;;;;;;;;;;;;;;;5.98;100.00;100186.75;5052876;28;19952;-91
2023/01/26 10:35:36;;;;;;;;;;;;;;;6.00;100.00;100187.59;5052939;28;19913;-86
2023/01/26 10:38:01;;;;;;;;;;;;;;;5.99;100.00;100187.63;5052833;28;19955;-85
2023/01/26 10:40:40;;;;;;;;;;;;;;;6.01;100.00;100185.81;5051671;28;19951;-86
2023/01/26 10:43:16;;;;;;;;;;;;;;;6.00;100.00;100184.09;5052869;28;19923;-85
2023/01/26 10:45:57;;;;;;;;;;;;;;;5.99;100.00;100179.72;5052665;28;19916;-85
2023/01/26 10:48:27;;;;;;;;;;;;;;;6.00;100.00;100181.47;5034975;28;19939;-85
2023/01/26 10:50:54;;;;;;;;;;;;;;;6.02;100.00;100184.09;5052773;28;20326;-84
2023/01/26 10:53:23;;;;;;;;;;;;;;;6.03;100.00;100186.69;5020351;28;20334;-86
2023/01/26 10:55:59;;;;;;;;;;;;;;;6.04;100.00;100187.53;5031326;28;19951;-86
2023/01/26 10:58:45;;;;;;;;;;;;;;;6.07;100.00;100190.97;5015151;28;19967;-85
2023/01/26 11:01:13;;;;;;;;;;;;;;;6.03;100.00;100181.41;5032771;28;19964;-85
2023/01/26 11:03:39;;;;;;;;;;;;;;;6.04;100.00;100175.25;5033164;28;19917;-87
2023/01/26 11:06:06;;;;;;;;;;;;;;;6.05;100.00;100178.72;5035629;28;19917;-85
2023/01/26 11:08:35;;;;;;;;;;;;;;;6.07;100.00;100182.22;5018848;28;20338;-85
2023/01/26 11:11:02;;;;;;;;;;;;;;;6.05;100.00;100170.84;5035150;28;19920;-86
2023/01/26 11:13:36;;;;;;;;;;;;;;;6.03;100.00;100160.38;5036530;28;19952;-86
2023/01/26 11:16:04;;;;;;;;;;;;;;;6.06;100.00;100155.03;5036316;28;19966;-84
2023/01/26 11:18:45;;;;;;;;;;;;;;;6.07;100.00;100155.91;5018641;28;19957;-83
2023/01/26 11:21:15;;;;;;;;;;;;;;;6.06;100.00;100152.41;5036199;28;19914;-84
2023/01/26 11:23:59;;;;;;;;;;;;;;;6.07;100.00;100153.28;5036215;28;19917;-84
2023/01/26 11:26:34;;;;;;;;;;;;;;;6.10;100.00;100151.47;5034855;28;19946;-86
2023/01/26 11:29:23;;;;;;;;;;;;;;;6.08;100.00;100152.38;5036071;28;20337;-84
2023/01/26 11:31:54;;;;;;;;;;;;;;;6.07;100.00;100150.66;5036183;28;19936;-84
2023/01/26 11:34:22;;;;;;;;;;;;;;;6.07;100.00;100151.50;5033303;28;19925;-85
2023/01/26 11:36:51;;;;;;;;;;;;;;;6.08;100.00;100148.00;5035879;28;19917;-87
2023/01/26 11:39:38;;;;;;;;;;;;;;;6.09;100.00;100148.84;5015920;28;19920;-86
2023/01/26 11:42:45;;;;;;;;;;;;;;;6.07;100.00;100148.03;5013319;28;19925;-86
2023/01/26 11:45:21;;;;;;;;;;;;;;;6.11;100.00;100145.31;4935485;29;19977;-87
2023/01/26 11:47:49;;;;;;;;;;;;;;;6.11;100.00;100144.41;4929089;29;20006;-85
2023/01/26 11:50:23;;;;;;;;;;;;;;;6.09;100.00;100133.94;4989643;28;19917;-86
2023/01/26 11:53:10;;;;;;;;;;;;;;;6.13;100.00;100140.03;4998107;28;19921;-85
2023/01/26 11:55:41;;;;;;;;;;;;;;;6.15;100.00;100130.31;4996880;28;19924;-86
2023/01/26 11:58:10;;;;;;;;;;;;;;;6.12;100.00;100122.50;4998022;28;19914;-86
2023/01/26 12:00:41;;;;;;;;;;;;;;;6.13;100.00;100129.50;5015649;28;20387;-87
2023/01/26 12:03:35;;;;;;;;;;;;;;;6.10;100.00;100126.94;5015555;28;20020;-89
2023/01/26 12:06:03;;;;;;;;;;;;;;;6.13;100.00;100125.09;4979921;28;19982;-86
2023/01/26 12:08:37;;;;;;;;;;;;;;;6.15;100.00;100120.66;5015599;28;19917;-86
2023/01/26 12:11:21;;;;;;;;;;;;;;;6.15;100.00;100115.41;5014104;28;19924;-86
2023/01/26 12:14:03;;;;;;;;;;;;;;;6.19;100.00;100110.97;4997910;28;19961;-88
2023/01/26 12:16:33;;;;;;;;;;;;;;;6.17;100.00;100115.38;5014994;28;19917;-90
2023/01/26 12:19:10;;;;;;;;;;;;;;;6.19;100.00;100110.97;5015388;28;19917;-85
2023/01/26 12:21:45;;;;;;;;;;;;;;;6.20;100.00;100111.81;5015174;28;19924;-87
2023/01/26 12:24:39;;;;;;;;;;;;;;;5.83;100.00;100108.94;5015487;28;19917;-85
2023/01/26 12:27:30;;;;;;;;;;;;;;;4.74;100.00;100115.97;4980500;28;19956;-87
2023/01/26 12:30:05;;;;;;;;;;;;;;;4.09;100.00;100105.41;4997484;28;20261;-86
2023/01/26 12:32:32;;;;;;;;;;;;;;;3.95;100.00;100108.16;5015104;28;19918;-86
2023/01/26 12:34:57;;;;;;;;;;;;;;;3.86;100.00;100101.28;5015030;28;19925;-84
2023/01/26 12:37:23;;;;;;;;;;;;;;;3.69;100.00;100096.19;5015375;28;19917;-89
2023/01/26 12:40:06;;;;;;;;;;;;;;;3.52;100.00;100092.88;5013696;28;19968;-87
2023/01/26 12:42:34;;;;;;;;;;;;;;;3.49;100.00;100085.03;5014874;28;19944;-88
2023/01/26 12:45:00;;;;;;;;;;;;;;;3.41;100.00;100088.56;5014393;28;19922;-88
2023/01/26 12:47:44;;;;;;;;;;;;;;;3.45;100.00;100086.81;5014872;28;19917;-86
2023/01/26 12:50:18;;;;;;;;;;;;;;;3.27;100.00;100082.56;5014655;28;20343;-86
2023/01/26 12:52:44;;;;;;;;;;;;;;;3.19;100.00;100084.41;5024024;28;19976;-86
2023/01/26 12:55:20;;;;;;;;;;;;;;;3.12;100.00;100077.47;5033111;28;19964;-87
2023/01/26 12:57:55;;;;;;;;;;;;;;;3.11;100.00;100084.44;5034219;28;20145;-86
2023/01/26 13:00:22;;;;;;;;;;;;;;;3.04;100.00;100082.78;5034043;28;19921;-86
2023/01/26 13:02:51;;;;;;;;;;;;;;;3.03;100.00;100083.63;5035727;28;20013;-86
2023/01/26 13:05:24;;;;;;;;;;;;;;;3.01;100.00;100075.81;5016332;28;19927;-87
2023/01/26 13:07:49;;;;;;;;;;;;;;;2.91;100.00;100075.00;5043632;28;19925;-86
2023/01/26 13:10:16;;;;;;;;;;;;;;;2.89;100.00;100082.00;5052841;28;20039;-86
2023/01/26 13:12:56;;;;;;;;;;;;;;;2.86;100.00;100073.31;5052575;28;19917;-87
2023/01/26 13:15:31;;;;;;;;;;;;;;;2.84;100.00;100073.31;5034161;28;19917;-86
2023/01/26 13:17:58;;;;;;;;;;;;;;;2.77;100.00;100074.22;5043647;28;19924;-89
2023/01/26 13:20:24;;;;;;;;;;;;;;;2.73;100.00;100070.75;5051724;28;19917;-87
2023/01/26 13:22:50;;;;;;;;;;;;;;;2.78;100.00;100078.59;5030686;28;19931;-86
2023/01/26 13:25:17;;;;;;;;;;;;;;;2.72;100.00;100083.84;5032408;28;20363;-87
2023/01/26 13:27:45;;;;;;;;;;;;;;;2.68;100.00;100077.78;5035476;28;19917;-88
2023/01/26 13:30:23;;;;;;;;;;;;;;;2.66;100.00;100076.03;5035290;28;19924;-87
2023/01/26 13:32:48;;;;;;;;;;;;;;;2.58;100.00;100078.69;5035967;28;19921;-87
2023/01/26 13:35:15;;;;;;;;;;;;;;;2.60;100.00;100070.84;5035771;28;20422;-87
2023/01/26 13:37:49;;;;;;;;;;;;;;;2.58;100.00;100080.44;5053428;28;19917;-86
2023/01/26 13:40:18;;;;;;;;;;;;;;;2.55;100.00;100078.72;5052285;28;19964;-86
2023/01/26 13:43:07;;;;;;;;;;;;;;;2.49;100.00;100081.34;5053618;28;20366;-87
2023/01/26 13:45:32;;;;;;;;;;;;;;;2.48;100.00;100088.34;5019222;28;19917;-85
2023/01/26 13:47:59;;;;;;;;;;;;;;;2.46;100.00;100086.63;5053440;28;20287;-87
2023/01/26 13:50:27;;;;;;;;;;;;;;;2.50;100.00;100093.56;5053450;28;19971;-86
2023/01/26 13:52:53;;;;;;;;;;;;;;;2.39;100.00;100091.00;5053216;28;19920;-87
2023/01/26 13:55:23;;;;;;;;;;;;;;;2.48;100.00;100097.94;5034033;28;19971;-86
2023/01/26 13:58:08;;;;;;;;;;;;;;;2.48;100.00;100095.34;5035589;28;19916;-86
2023/01/26 14:00:33;;;;;;;;;;;;;;;2.44;100.00;100096.22;5019148;28;20029;-85
2023/01/26 14:02:59;;;;;;;;;;;;;;;2.44;100.00;100102.34;5053306;28;20360;-85
2023/01/26 14:05:24;;;;;;;;;;;;;;;2.34;100.00;100096.25;5053170;28;19971;-87
2023/01/26 14:07:49;;;;;;;;;;;;;;;2.41;100.00;100094.50;5035343;28;19920;-86
2023/01/26 14:10:18;;;;;;;;;;;;;;;2.34;100.00;100093.63;5051752;28;20388;-87
2023/01/26 14:12:51;;;;;;;;;;;;;;;2.30;100.00;100097.16;5053205;28;19916;-85
2023/01/26 14:15:22;;;;;;;;;;;;;;;2.27;100.00;100096.31;5053073;28;19913;-86
2023/01/26 14:17:49;;;;;;;;;;;;;;;2.30;100.00;100099.78;5053177;28;19917;-87
2023/01/26 14:20:23;;;;;;;;;;;;;;;2.30;100.00;100089.31;5052833;28;19947;-84
2023/01/26 14:23:11;;;;;;;;;;;;;;;2.30;100.00;100093.69;5053092;28;19916;-88
2023/01/26 14:25:37;;;;;;;;;;;;;;;2.26;100.00;100092.78;5051683;28;19917;-88
2023/01/26 14:28:03;;;;;;;;;;;;;;;2.28;100.00;100092.78;5053079;28;20055;-86
2023/01/26 14:30:30;;;;;;;;;;;;;;;2.30;100.00;100096.28;5052940;28;20398;-86
2023/01/26 14:33:01;;;;;;;;;;;;;;;2.87;100.00;100099.47;5034947;28;19917;-88
2023/01/26 14:35:27;;;;;;;;;;;;;;;3.35;100.00;100093.88;5035132;28;20382;-88
2023/01/26 14:38:04;;;;;;;;;;;;;;;3.65;100.00;100089.22;5052807;28;20434;-86
2023/01/26 14:40:29;;;;;;;;;;;;;;;3.88;100.00;100086.38;5053896;28;20438;-87
2023/01/26 14:42:55;;;;;;;;;;;;;;;4.00;100.00;100088.00;5056938;28;20019;-87
2023/01/26 14:45:25;;;;;;;;;;;;;;;4.11;100.00;100086.13;5056675;28;19963;-87
2023/01/26 14:48:00;;;;;;;;;;;;;;;4.23;100.00;100093.00;5056945;28;19917;-87
2023/01/26 14:50:29;;;;;;;;;;;;;;;4.30;100.00;100089.38;5056722;28;20307;-87
2023/01/26 14:52:57;;;;;;;;;;;;;;;4.43;100.00;100089.25;5056623;28;19968;-87
2023/01/26 14:55:30;;;;;;;;;;;;;;;4.48;100.00;100085.69;5055376;28;19916;-87
2023/01/26 14:57:57;;;;;;;;;;;;;;;4.58;100.00;100098.66;5056568;28;20376;-87
2023/01/26 15:00:34;;;;;;;;;;;;;;;4.59;100.00;100096.00;5056540;28;19971;-88
2023/01/26 15:03:03;;;;;;;;;;;;;;;4.69;100.00;100105.53;5056635;28;19928;-88
2023/01/26 15:05:33;;;;;;;;;;;;;;;4.99;100.00;100100.69;5056544;28;20490;-89
2023/01/26 15:07:59;;;;;;;;;;;;;;;4.94;100.00;100102.53;5039020;28;20313;-89
2023/01/26 15:10:40;;;;;;;;;;;;;;;5.02;100.00;100099.78;5055164;28;19919;-86
2023/01/26 15:13:05;;;;;;;;;;;;;;;5.03;100.00;100093.66;5056430;28;19956;-86
2023/01/26 15:15:32;;;;;;;;;;;;;;;5.07;100.00;100097.97;5056291;28;19974;-88
2023/01/26 15:18:12;;;;;;;;;;;;;;;5.11;100.00;100094.41;5056396;28;19916;-87
2023/01/26 15:21:14;;;;;;;;;;;;;;;5.15;100.00;100087.34;5056336;28;19913;-87
2023/01/26 15:23:41;;;;;;;;;;;;;;;5.16;100.00;100082.06;5056094;28;19921;-88
2023/01/26 15:29:00;;;;;;;;;;;;;;;5.23;100.00;100088.09;5014950;28;19917;-89
2023/01/26 15:31:30;;;;;;;;;;;;;;;5.25;100.00;100086.31;5038129;28;19920;-88
2023/01/26 15:34:04;;;;;;;;;;;;;;;5.28;100.00;100092.38;5056233;28;20291;-87
2023/01/26 15:36:35;;;;;;;;;;;;;;;5.31;100.00;100082.69;5055966;28;19928;-87
2023/01/26 15:39:13;;;;;;;;;;;;;;;5.35;100.00;100087.88;5055821;28;19921;-87
2023/01/26 15:41:43;;;;;;;;;;;;;;;5.34;100.00;100091.41;5036894;28;19917;-88
2023/01/26 15:44:23;;;;;;;;;;;;;;;5.37;100.00;100088.72;5055678;28;19999;-91
2023/01/26 15:46:51;;;;;;;;;;;;;;;5.40;100.00;100083.41;5013543;28;19917;-87
2023/01/26 15:49:21;;;;;;;;;;;;;;;5.41;100.00;100085.16;4997181;28;19921;-88
2023/01/26 15:51:46;;;;;;;;;;;;;;;5.45;100.00;100083.34;5011020;28;20000;-86
2023/01/26 15:54:21;;;;;;;;;;;;;;;5.48;100.00;100093.81;4977529;28;20333;-87
2023/01/26 15:56:51;;;;;;;;;;;;;;;5.52;100.00;100097.25;4994165;28;19924;-87
2023/01/26 16:00:11;;;;;;;;;;;;;;;5.52;100.00;100095.50;4993923;28;19960;-91
2023/01/26 16:02:22;;;;;;;;;;;;;;;5.54;100.00;100104.22;4985970;28;19921;-87
2023/01/26 16:04:47;;;;;;;;;;;;;;;5.57;100.00;100105.94;4977555;28;19921;-87
2023/01/26 16:07:14;;;;;;;;;;;;;;;5.59;100.00;100106.75;4993899;28;19917;-89
2023/01/26 16:09:39;;;;;;;;;;;;;;;5.61;100.00;100104.97;4976279;28;20229;-87
2023/01/26 16:12:27;;;;;;;;;;;;;;;5.62;100.00;100104.94;5026863;28;19918;-91
2023/01/26 16:14:52;;;;;;;;;;;;;;;5.63;100.00;100098.81;5035276;28;19917;-88
2023/01/26 16:17:18;;;;;;;;;;;;;;;5.67;100.00;100109.28;5035294;28;19963;-88
2023/01/26 16:19:45;;;;;;;;;;;;;;;5.68;100.00;100106.63;5035158;28;20368;-86
2023/01/26 16:22:11;;;;;;;;;;;;;;;5.70;100.00;100104.81;5035159;28;20011;-87
2023/01/26 16:24:39;;;;;;;;;;;;;;;5.71;100.00;100101.31;5016011;28;20472;-87
2023/01/26 16:27:05;;;;;;;;;;;;;;;5.73;100.00;100096.03;5035199;28;19924;-87
2023/01/26 16:29:33;;;;;;;;;;;;;;;5.73;100.00;100094.25;5033804;28;19921;-88
2023/01/26 16:32:22;;;;;;;;;;;;;;;5.73;100.00;100096.88;5015861;28;19929;-90
2023/01/26 16:34:47;;;;;;;;;;;;;;;5.75;100.00;100097.69;5016843;28;20368;-91
2023/01/26 16:40:10;;;;;;;;;;;;;;;5.79;100.00;100107.28;4970452;26;19925;-91
2023/01/26 16:42:38;;;;;;;;;;;;;;;5.81;100.00;100107.25;4997598;28;19921;-87
2023/01/26 16:45:04;;;;;;;;;;;;;;;5.84;100.00;100107.22;4997511;28;19917;-89
2023/01/26 16:47:31;;;;;;;;;;;;;;;5.81;100.00;100102.84;5014869;28;19925;-89
2023/01/26 16:49:58;;;;;;;;;;;;;;;5.84;100.00;100104.56;4990501;28;19922;-87
2023/01/26 16:52:31;;;;;;;;;;;;;;;5.85;100.00;100098.41;4996283;28;20274;-90
2023/01/26 16:54:57;;;;;;;;;;;;;;;5.85;100.00;100093.13;4994283;28;19923;-88
2023/01/26 16:57:23;;;;;;;;;;;;;;;5.88;100.00;100100.13;4999523;28;19956;-88
2023/01/26 16:59:50;;;;;;;;;;;;;;;5.90;100.00;100100.94;4996132;28;19926;-89
2023/01/26 17:02:45;;;;;;;;;;;;;;;5.89;100.00;100099.19;5013597;28;19921;-88
2023/01/26 17:05:13;;;;;;;;;;;;;;;5.90;100.00;100101.81;4988623;28;19984;-87
2023/01/26 17:07:38;;;;;;;;;;;;;;;5.90;100.00;100098.31;4999808;28;19941;-89
2023/01/26 17:10:12;;;;;;;;;;;;;;;5.91;100.00;100098.28;4994192;28;21290;-92
2023/01/26 17:12:40;;;;;;;;;;;;;;;5.94;100.00;100100.00;4985595;28;19918;-87
2023/01/26 17:15:08;;;;;;;;;;;;;;;5.95;100.00;100091.19;4983134;28;19929;-89
2023/01/26 17:17:34;;;;;;;;;;;;;;;5.93;100.00;100085.97;5010372;28;19926;-86
2023/01/26 17:20:03;;;;;;;;;;;;;;;5.96;100.00;100096.47;5012195;28;19929;-85
2023/01/26 17:22:28;;;;;;;;;;;;;;;5.97;100.00;100095.56;5011437;28;20020;-86
2023/01/26 17:24:54;;;;;;;;;;;;;;;5.99;100.00;100100.81;5012671;28;20024;-86
2023/01/26 17:27:19;;;;;;;;;;;;;;;5.99;100.00;100096.41;5014492;28;19921;-86
2023/01/26 17:29:54;;;;;;;;;;;;;;;6.00;100.00;100094.66;5010359;28;20409;-92
2023/01/26 17:32:24;;;;;;;;;;;;;;;6.03;100.00;100099.88;5008553;28;19922;-87
2023/01/26 17:34:50;;;;;;;;;;;;;;;6.00;100.00;100103.41;5011488;28;19921;-85
2023/01/26 17:37:15;;;;;;;;;;;;;;;6.03;100.00;100109.50;5003466;28;19925;-87
2023/01/26 17:39:40;;;;;;;;;;;;;;;6.04;100.00;100098.09;5012875;28;19932;-86
2023/01/26 17:42:38;;;;;;;;;;;;;;;;;;;;;
2023/01/26 17:45:04;;;;;;;;;;;;;;;6.07;100.00;100098.03;4994684;28;19921;-87
2023/01/26 17:47:32;;;;;;;;;;;;;;;6.08;100.00;100099.75;4994291;28;20338;-89
2023/01/26 17:49:58;;;;;;;;;;;;;;;6.08;100.00;100105.91;4977426;28;19917;-87
2023/01/26 17:52:35;;;;;;;;;;;;;;;6.10;100.00;100105.88;4976888;28;19972;-87
2023/01/26 17:55:02;;;;;;;;;;;;;;;6.10;100.00;100116.41;5009731;28;19918;-87
2023/01/26 17:57:27;;;;;;;;;;;;;;;6.10;100.00;100113.78;4996109;28;20373;-86
2023/01/26 17:59:52;;;;;;;;;;;;;;;6.11;100.00;100115.47;4996075;28;19924;-87
2023/01/26 18:02:18;;;;;;;;;;;;;;;6.14;100.00;100118.06;5013668;28;20369;-86
2023/01/26 18:04:43;;;;;;;;;;;;;;;6.13;100.00;100117.19;5013511;28;19960;-87
2023/01/26 18:07:09;;;;;;;;;;;;;;;6.13;100.00;100113.72;5013574;28;20398;-88
2023/01/26 18:09:34;;;;;;;;;;;;;;;6.14;100.00;100110.16;4994710;28;19925;-87
2023/01/26 18:12:00;;;;;;;;;;;;;;;6.15;100.00;100114.53;5001672;28;19925;-86
2023/01/26 18:14:25;;;;;;;;;;;;;;;6.16;100.00;100109.25;4975928;28;19929;-88
2023/01/26 18:16:50;;;;;;;;;;;;;;;6.17;100.00;100115.38;4979341;28;19925;-89
2023/01/26 18:19:16;;;;;;;;;;;;;;;6.17;100.00;100118.00;4996048;28;19921;-89
2023/01/26 18:21:41;;;;;;;;;;;;;;;6.17;100.00;100120.63;5013515;28;19917;-87
2023/01/26 18:24:07;;;;;;;;;;;;;;;6.18;100.00;100117.13;4997464;28;20365;-86
2023/01/26 18:26:34;;;;;;;;;;;;;;;6.18;100.00;100114.47;4992476;28;20325;-87
2023/01/26 18:29:00;;;;;;;;;;;;;;;6.16;100.00;100118.91;4987694;28;20408;-86
2023/01/26 18:31:27;;;;;;;;;;;;;;;6.17;100.00;100118.88;4983490;28;19918;-88
2023/01/26 18:33:52;;;;;;;;;;;;;;;6.20;100.00;100112.69;5013410;28;19976;-88
2023/01/26 18:36:19;;;;;;;;;;;;;;;6.23;100.00;100119.66;4997192;28;20294;-87
2023/01/26 18:38:49;;;;;;;;;;;;;;;6.19;100.00;100118.84;4993443;28;20008;-87
2023/01/26 18:41:15;;;;;;;;;;;;;;;5.02;100.00;100118.19;4975226;28;19917;-84
2023/01/26 18:43:41;;;;;;;;;;;;;;;4.45;100.00;100119.84;4993569;28;20330;-86
2023/01/26 18:46:07;;;;;;;;;;;;;;;4.24;100.00;100125.31;5006607;28;19922;-86
2023/01/26 18:48:34;;;;;;;;;;;;;;;4.04;100.00;100120.28;4996431;28;19918;-86
2023/01/26 18:50:59;;;;;;;;;;;;;;;3.96;100.00;100120.41;4993615;28;20372;-85
2023/01/26 18:53:24;;;;;;;;;;;;;;;3.90;100.00;100123.94;4995622;28;19928;-87
2023/01/26 18:55:59;;;;;;;;;;;;;;;3.71;100.00;100127.63;5012047;28;19917;-87
2023/01/26 18:58:24;;;;;;;;;;;;;;;3.58;100.00;100124.25;5013154;28;19918;-85
2023/01/26 19:00:49;;;;;;;;;;;;;;;3.54;100.00;100122.53;5013076;28;19917;-83
2023/01/26 19:03:17;;;;;;;;;;;;;;;3.39;100.00;100116.53;5013124;28;19924;-86
2023/01/26 19:05:42;;;;;;;;;;;;;;;3.35;100.00;100117.47;4977572;28;19929;-90
2023/01/26 19:08:10;;;;;;;;;;;;;;;3.34;100.00;100122.72;5012753;28;19917;-88
2023/01/26 19:10:38;;;;;;;;;;;;;;;3.27;100.00;100124.47;4994828;28;19964;-86
2023/01/26 19:13:09;;;;;;;;;;;;;;;3.16;100.00;100127.22;4995953;28;19919;-86
2023/01/26 19:15:35;;;;;;;;;;;;;;;3.24;100.00;100125.41;4994275;28;20284;-88
2023/01/26 19:18:03;;;;;;;;;;;;;;;3.14;100.00;100126.31;4994647;28;19928;-88
2023/01/26 19:20:28;;;;;;;;;;;;;;;3.08;100.00;100124.63;5012501;28;20448;-87
2023/01/26 19:22:54;;;;;;;;;;;;;;;2.97;100.00;100131.69;5012109;28;19944;-89
2023/01/26 19:25:23;;;;;;;;;;;;;;;2.98;100.00;100127.31;5011530;28;19969;-88
2023/01/26 19:27:48;;;;;;;;;;;;;;;2.97;100.00;100122.94;4997961;28;20301;-89
2023/01/26 19:30:14;;;;;;;;;;;;;;;2.91;100.00;100122.13;4998229;28;19925;-88
2023/01/26 19:33:22;;;;;;;;;;;;;;;3.00;100.00;100108.13;5014410;28;19936;-86
2023/01/26 19:35:24;;;;;;;;;;;;;;;3.02;100.00;100114.19;4996516;28;19917;-88
2023/01/26 19:37:49;;;;;;;;;;;;;;;2.89;100.00;100113.41;4990864;28;19932;-86
2023/01/26 19:40:15;;;;;;;;;;;;;;;2.90;100.00;100111.66;4997597;28;19917;-88
2023/01/26 19:42:40;;;;;;;;;;;;;;;2.86;100.00;100118.66;4998683;28;20405;-88
2023/01/26 19:45:06;;;;;;;;;;;;;;;2.86;100.00;100121.28;5013235;28;19975;-87
2023/01/26 19:47:31;;;;;;;;;;;;;;;2.76;100.00;100110.88;4997240;28;19922;-88
2023/01/26 19:49:57;;;;;;;;;;;;;;;2.79;100.00;100111.72;4998290;28;19921;-90
2023/01/26 19:52:22;;;;;;;;;;;;;;;2.66;100.00;100113.53;5016114;28;19957;-88
2023/01/26 19:54:48;;;;;;;;;;;;;;;2.73;100.00;100106.53;4997184;28;20023;-87
2023/01/26 19:57:13;;;;;;;;;;;;;;;2.72;100.00;100104.78;4993776;28;19929;-88
2023/01/26 19:59:38;;;;;;;;;;;;;;;2.66;100.00;100105.69;5013140;28;19963;-87
2023/01/26 20:02:03;;;;;;;;;;;;;;;2.71;100.00;100103.03;5015961;28;19925;-88
2023/01/26 20:04:29;;;;;;;;;;;;;;;2.62;100.00;100101.38;5015959;28;19921;-85
2023/01/26 20:06:54;;;;;;;;;;;;;;;2.71;100.00;100103.94;5015809;28;19968;-85
2023/01/26 20:09:19;;;;;;;;;;;;;;;2.66;100.00;100099.59;5011702;28;19928;-87
2023/01/26 20:11:47;;;;;;;;;;;;;;;2.61;100.00;100106.59;4997633;28;19968;-88
2023/01/26 20:14:14;;;;;;;;;;;;;;;2.59;100.00;100103.13;5015874;28;19917;-90
2023/01/26 20:16:40;;;;;;;;;;;;;;;2.60;100.00;100105.75;5014349;28;19925;-88
2023/01/26 20:19:05;;;;;;;;;;;;;;;2.57;100.00;100095.28;4995929;28;19940;-87
2023/01/26 20:21:44;;;;;;;;;;;;;;;;;;;;;
2023/01/26 20:24:25;;;;;;;;;;;;;;;2.50;100.00;100101.41;4980003;28;19924;-86
2023/01/26 20:26:50;;;;;;;;;;;;;;;2.52;100.00;100091.81;5006237;28;19981;-90
2023/01/26 20:29:23;;;;;;;;;;;;;;;2.46;100.00;100097.09;5012905;28;19921;-90
2023/01/26 20:32:30;;;;;;;;;;;;;;;2.50;100.00;100093.56;5013241;28;20021;-88
2023/01/26 20:35:32;;;;;;;;;;;;;;;2.43;100.00;100086.66;5013478;28;19925;-92
2023/01/26 20:37:48;;;;;;;;;;;;;;;2.43;100.00;100091.88;5006500;28;19928;-84
2023/01/26 20:40:13;;;;;;;;;;;;;;;2.52;100.00;100089.19;5012997;28;19922;-86
2023/01/26 20:42:38;;;;;;;;;;;;;;;2.43;100.00;100087.50;5014929;28;19921;-88
2023/01/26 20:45:04;;;;;;;;;;;;;;;2.42;100.00;100087.50;5015221;28;19960;-84